Time;durP1;ratioP1;P1;durP2;ratioP2;P2;SDS_P1;SDS_P2;PMS_P1;PMS_P2;Temp;Humidity;BMP_temperature;BMP_pressure;BME280_temperature;BME280_humidity;BME280_pressure;Samples;Min_cycle;Max_cycle;Signal;HPM_P1;HPM_P2
2023/06/13 04:30:05;;;;;;;12.15;5.22;;;17.80;76.40;;;;;;6079125;23;20022;31
2023/06/13 04:32:34;;;;;;;11.05;5.47;;;17.80;76.60;;;;;;4892894;29;20070;-76
2023/06/13 04:35:00;;;;;;;11.98;5.43;;;17.80;76.40;;;;;;4912482;29;20088;-76
2023/06/13 04:37:25;;;;;;;11.00;5.85;;;17.80;76.80;;;;;;4906668;29;20037;-76
2023/06/13 04:39:55;;;;;;;12.63;5.70;;;17.80;76.70;;;;;;4899496;29;20065;-76
2023/06/13 04:42:28;;;;;;;12.98;5.38;;;17.80;76.60;;;;;;4903788;29;20087;-76
2023/06/13 04:44:58;;;;;;;10.75;5.90;;;17.80;76.70;;;;;;4901060;29;20040;-79
2023/06/13 04:47:29;;;;;;;15.70;6.25;;;17.90;76.90;;;;;;4917274;29;20032;-76
2023/06/13 04:49:58;;;;;;;12.93;6.22;;;17.90;76.60;;;;;;4917903;29;20036;-77
2023/06/13 04:52:32;;;;;;;11.43;5.72;;;17.90;76.60;;;;;;4917549;29;20111;-78
2023/06/13 04:55:02;;;;;;;11.75;6.20;;;18.00;76.70;;;;;;4918149;29;20032;-77
2023/06/13 04:57:31;;;;;;;13.77;6.68;;;18.00;76.50;;;;;;4900461;29;20038;-78
2023/06/13 04:59:58;;;;;;;13.63;6.28;;;18.00;76.70;;;;;;4900683;29;20040;-78
2023/06/13 05:02:25;;;;;;;13.68;6.70;;;18.10;76.60;;;;;;4914211;29;20566;-79
2023/06/13 05:04:52;;;;;;;12.90;6.88;;;18.00;77.00;;;;;;4921217;29;20044;-78
2023/06/13 05:07:19;;;;;;;12.05;6.50;;;18.00;76.90;;;;;;4921144;29;20028;-80
2023/06/13 05:09:45;;;;;;;16.13;7.28;;;18.10;76.60;;;;;;4903571;29;20060;-80
2023/06/13 05:12:12;;;;;;;13.55;6.70;;;18.10;77.00;;;;;;4920983;29;20028;-79
2023/06/13 05:14:40;;;;;;;11.80;5.80;;;18.20;77.20;;;;;;4919966;29;20059;-81
2023/06/13 05:17:06;;;;;;;12.57;6.53;;;18.20;76.90;;;;;;4904239;29;20036;-78
2023/06/13 05:19:35;;;;;;;11.93;6.65;;;18.20;76.90;;;;;;4903875;29;20043;-82
2023/06/13 05:22:03;;;;;;;12.52;5.75;;;18.30;76.60;;;;;;4900840;29;20033;-78
2023/06/13 05:24:30;;;;;;;14.90;6.28;;;18.30;76.40;;;;;;4918733;29;20063;-78
2023/06/13 05:26:56;;;;;;;10.73;5.85;;;18.40;75.80;;;;;;4935631;29;20525;-77
2023/06/13 05:29:21;;;;;;;11.55;6.55;;;18.40;76.00;;;;;;4920869;29;20028;-77
2023/06/13 05:31:47;;;;;;;12.63;6.38;;;18.50;75.80;;;;;;4920451;29;20044;-77
2023/06/13 05:34:13;;;;;;;13.32;6.07;;;18.50;75.70;;;;;;4920531;29;20063;-78
2023/06/13 05:36:38;;;;;;;10.90;5.80;;;18.60;75.60;;;;;;4920757;29;20023;-78
2023/06/13 05:39:04;;;;;;;9.75;5.45;;;18.70;75.70;;;;;;4920541;29;20039;-79
2023/06/13 05:41:30;;;;;;;11.93;5.60;;;18.80;75.30;;;;;;4921032;29;20032;-78
2023/06/13 05:43:55;;;;;;;12.13;5.90;;;18.80;75.10;;;;;;4918712;29;20032;-80
2023/06/13 05:46:21;;;;;;;11.40;5.25;;;18.90;75.00;;;;;;4921264;29;20044;-78
2023/06/13 05:48:46;;;;;;;11.30;5.72;;;18.90;74.70;;;;;;4918633;29;20079;-79
2023/06/13 05:51:12;;;;;;;10.48;5.25;;;18.90;74.60;;;;;;4903878;29;20395;-78
2023/06/13 05:53:38;;;;;;;9.80;4.60;;;19.00;74.40;;;;;;4921814;29;20059;-80
2023/06/13 05:56:04;;;;;;;9.48;5.25;;;19.10;74.30;;;;;;4919666;29;20114;-81
2023/06/13 05:58:29;;;;;;;9.25;4.95;;;19.20;74.00;;;;;;4920445;29;20032;-79
2023/06/13 06:00:57;;;;;;;10.40;5.15;;;19.20;74.00;;;;;;4903714;29;20041;-78
2023/06/13 06:03:23;;;;;;;8.98;4.60;;;19.30;73.90;;;;;;4919102;29;20032;-78
2023/06/13 06:05:48;;;;;;;10.15;5.20;;;19.30;73.30;;;;;;4915502;29;20503;-78
2023/06/13 06:08:14;;;;;;;9.63;4.88;;;19.30;73.20;;;;;;4916130;29;20033;-79
2023/06/13 06:10:40;;;;;;;9.88;4.85;;;19.30;73.10;;;;;;4907092;29;20048;-79
2023/06/13 06:13:06;;;;;;;7.50;4.28;;;19.30;73.20;;;;;;4919608;29;20036;-79
2023/06/13 06:15:32;;;;;;;8.70;4.65;;;19.20;73.50;;;;;;4920152;29;20025;-79
2023/06/13 06:17:58;;;;;;;9.60;5.38;;;19.20;73.50;;;;;;4903002;29;20067;-80
2023/06/13 06:20:23;;;;;;;8.35;4.57;;;19.10;73.70;;;;;;4920220;29;20028;-79
2023/06/13 06:22:49;;;;;;;8.82;5.03;;;19.10;74.00;;;;;;4918851;29;20035;-79
2023/06/13 06:25:19;;;;;;;7.72;4.40;;;19.00;73.90;;;;;;4921554;29;20119;-78
2023/06/13 06:27:49;;;;;;;9.40;4.40;;;19.00;73.90;;;;;;4918744;29;20051;-75
2023/06/13 06:30:15;;;;;;;10.43;4.90;;;19.00;74.40;;;;;;4918796;29;20024;-78
2023/06/13 06:32:42;;;;;;;8.30;5.00;;;19.00;74.30;;;;;;4918655;29;20043;-78
2023/06/13 06:35:08;;;;;;;9.77;5.35;;;19.00;73.90;;;;;;4918838;29;20128;-77
2023/06/13 06:37:34;;;;;;;8.98;5.05;;;19.20;73.90;;;;;;4918632;29;20028;-77
2023/06/13 06:40:00;;;;;;;7.95;4.53;;;19.30;73.70;;;;;;4918824;29;20668;-78
2023/06/13 06:42:26;;;;;;;8.73;4.65;;;19.30;73.60;;;;;;4919065;29;20518;-77
2023/06/13 06:44:52;;;;;;;8.75;4.95;;;19.40;73.40;;;;;;4919415;29;20059;-77
2023/06/13 06:47:17;;;;;;;9.07;4.78;;;19.50;73.30;;;;;;4917357;29;20032;-77
2023/06/13 06:49:43;;;;;;;8.52;4.93;;;19.70;73.10;;;;;;4918439;29;20024;-78
2023/06/13 06:52:09;;;;;;;10.95;5.20;;;19.70;72.80;;;;;;4919541;29;20031;-78
2023/06/13 06:54:35;;;;;;;8.75;5.25;;;19.80;72.70;;;;;;4918942;29;20051;-77
2023/06/13 06:57:03;;;;;;;10.35;5.43;;;19.90;72.50;;;;;;4919611;29;20055;-79
2023/06/13 06:59:29;;;;;;;9.82;5.53;;;20.00;72.50;;;;;;4917464;29;20039;-78
2023/06/13 07:01:55;;;;;;;9.30;5.05;;;20.00;72.20;;;;;;4918850;29;20123;-81
2023/06/13 07:04:22;;;;;;;8.80;5.18;;;20.00;72.40;;;;;;4918661;29;20514;-73
2023/06/13 07:06:48;;;;;;;8.93;5.00;;;20.10;72.20;;;;;;4903163;29;20032;-75
2023/06/13 07:09:14;;;;;;;11.55;5.53;;;20.30;71.60;;;;;;4917093;29;20044;-75
2023/06/13 07:11:39;;;;;;;8.50;5.13;;;20.50;70.90;;;;;;4917643;29;20028;-77
2023/06/13 07:14:05;;;;;;;9.57;5.25;;;20.70;70.90;;;;;;4919307;29;20025;-76
2023/06/13 07:16:31;;;;;;;8.57;4.88;;;20.80;70.20;;;;;;4918352;29;20032;-75
2023/06/13 07:18:56;;;;;;;9.18;5.30;;;20.80;70.40;;;;;;4919281;29;20194;-76
2023/06/13 07:21:22;;;;;;;8.32;5.05;;;20.80;70.10;;;;;;4916838;29;20036;-76
2023/06/13 07:23:48;;;;;;;7.28;4.45;;;20.80;70.50;;;;;;4920117;29;20032;-76
2023/06/13 07:26:14;;;;;;;8.85;4.95;;;20.80;70.70;;;;;;4918204;29;20032;-78
2023/06/13 07:28:40;;;;;;;8.30;5.20;;;20.90;70.60;;;;;;4919003;29;20168;-76
2023/06/13 07:31:06;;;;;;;9.93;5.72;;;21.00;70.20;;;;;;4916165;29;20093;-75
2023/06/13 07:33:32;;;;;;;9.60;5.25;;;21.20;69.60;;;;;;4917627;29;20028;-76
2023/06/13 07:35:57;;;;;;;7.57;4.55;;;21.30;69.40;;;;;;4914051;29;20033;-77
2023/06/13 07:38:24;;;;;;;8.52;4.93;;;21.40;69.00;;;;;;4918572;29;20059;-77
2023/06/13 07:40:50;;;;;;;8.73;4.88;;;21.70;68.10;;;;;;4918076;29;20206;-76
2023/06/13 07:43:16;;;;;;;8.70;5.20;;;22.30;67.20;;;;;;4920294;29;20129;-76
2023/06/13 07:45:42;;;;;;;7.80;5.40;;;23.30;63.80;;;;;;4917633;29;20131;-76
2023/06/13 07:48:07;;;;;;;7.95;5.03;;;25.00;59.50;;;;;;4901792;29;20115;-77
2023/06/13 07:50:34;;;;;;;6.85;4.78;;;27.30;54.10;;;;;;4923021;29;20472;-78
2023/06/13 07:53:00;;;;;;;6.90;5.15;;;29.40;49.10;;;;;;4918941;29;20055;-77
2023/06/13 07:55:26;;;;;;;6.95;4.72;;;31.30;44.80;;;;;;4918409;29;20478;-77
2023/06/13 07:57:52;;;;;;;5.57;4.20;;;32.90;41.90;;;;;;4917429;29;20115;-78
2023/06/13 08:00:18;;;;;;;5.80;4.57;;;33.90;38.70;;;;;;4901365;29;20059;-77
2023/06/13 08:02:46;;;;;;;6.07;4.90;;;34.50;37.40;;;;;;4917779;29;20043;-77
2023/06/13 08:05:14;;;;;;;6.07;4.70;;;35.20;36.80;;;;;;4918162;29;20024;-77
2023/06/13 08:07:40;;;;;;;5.20;4.70;;;35.50;35.20;;;;;;4919500;29;20118;-77
2023/06/13 08:10:06;;;;;;;6.15;5.43;;;35.90;34.70;;;;;;4922073;29;20068;-77
2023/06/13 08:12:32;;;;;;;7.03;5.32;;;36.30;33.00;;;;;;4921870;29;20024;-77
2023/06/13 08:14:58;;;;;;;5.57;5.05;;;36.40;33.70;;;;;;4920424;29;20055;-78
2023/06/13 08:17:26;;;;;;;5.28;4.65;;;36.60;33.90;;;;;;4921788;29;20032;-78
2023/06/13 08:19:52;;;;;;;6.22;4.80;;;37.00;32.90;;;;;;4921784;29;20028;-79
2023/06/13 08:22:18;;;;;;;5.38;4.45;;;37.30;32.00;;;;;;4921589;29;20451;-85
2023/06/13 08:24:47;;;;;;;6.57;5.43;;;37.40;32.50;;;;;;4923193;29;20032;-79
2023/06/13 08:27:16;;;;;;;6.78;5.13;;;37.30;32.10;;;;;;4922164;29;20501;-81
2023/06/13 08:29:42;;;;;;;6.65;4.95;;;37.20;31.00;;;;;;4921749;29;20036;-79
2023/06/13 08:32:08;;;;;;;6.22;4.70;;;36.90;31.60;;;;;;4920311;29;20036;-79
2023/06/13 08:34:34;;;;;;;4.75;4.25;;;37.00;32.50;;;;;;4916836;29;20080;-79
2023/06/13 08:37:00;;;;;;;5.40;4.38;;;37.10;32.50;;;;;;4902895;29;20080;-79
2023/06/13 08:39:26;;;;;;;5.28;4.50;;;37.20;32.60;;;;;;4918080;29;20031;-76
2023/06/13 08:41:53;;;;;;;5.50;4.05;;;37.10;33.10;;;;;;4920618;29;20508;-76
2023/06/13 08:44:20;;;;;;;5.80;4.28;;;37.10;32.80;;;;;;4921187;29;20147;-79
2023/06/13 08:46:45;;;;;;;6.20;4.97;;;37.00;32.90;;;;;;4921106;29;20023;-79
2023/06/13 08:49:11;;;;;;;4.85;4.00;;;36.60;32.40;;;;;;4921301;29;20024;-79
2023/06/13 08:51:37;;;;;;;4.72;3.75;;;36.50;33.60;;;;;;4904222;29;20028;-79
2023/06/13 08:54:04;;;;;;;5.18;4.22;;;36.00;33.80;;;;;;4920560;29;20024;-79
2023/06/13 08:56:37;;;;;;;5.03;3.80;;;35.70;34.80;;;;;;4921589;29;20020;-79
2023/06/13 08:59:17;;;;;;;4.80;3.78;;;35.50;35.20;;;;;;4919528;29;20050;-78
2023/06/13 09:01:44;;;;;;;5.25;4.10;;;35.80;34.80;;;;;;4919569;29;20119;-78
2023/06/13 09:04:11;;;;;;;6.38;4.32;;;36.10;34.70;;;;;;4920028;29;20126;-78
2023/06/13 09:06:38;;;;;;;5.45;4.57;;;36.60;34.70;;;;;;4903730;29;20076;-86
2023/06/13 09:09:07;;;;;;;5.55;4.10;;;36.90;32.80;;;;;;4919910;29;20036;-85
2023/06/13 09:11:37;;;;;;;4.43;3.83;;;37.00;32.80;;;;;;4914186;29;20032;-79
2023/06/13 09:14:04;;;;;;;4.85;3.58;;;37.40;33.30;;;;;;4921270;29;20137;-79
2023/06/13 09:16:31;;;;;;;4.20;3.80;;;37.40;32.60;;;;;;4919889;29;20107;-79
2023/06/13 09:18:58;;;;;;;4.32;3.90;;;37.30;33.50;;;;;;4918274;29;20043;-77
2023/06/13 09:21:24;;;;;;;5.13;4.07;;;37.30;33.00;;;;;;4920429;29;20032;-78
2023/06/13 09:23:53;;;;;;;5.38;4.68;;;37.40;33.50;;;;;;4923484;29;20024;-78
2023/06/13 09:26:18;;;;;;;5.03;4.40;;;37.30;32.40;;;;;;4933753;29;20032;-78
2023/06/13 09:28:47;;;;;;;5.18;4.00;;;37.10;32.00;;;;;;4921331;29;20506;-77
2023/06/13 09:31:13;;;;;;;4.15;3.70;;;37.30;32.70;;;;;;4920873;29;20048;-78
2023/06/13 09:33:39;;;;;;;3.97;3.60;;;37.30;32.50;;;;;;4920932;29;20517;-78
2023/06/13 09:36:05;;;;;;;4.63;3.85;;;37.50;32.20;;;;;;4920378;29;20025;-77
2023/06/13 09:38:34;;;;;;;4.05;3.65;;;37.50;32.80;;;;;;4921148;29;20115;-78
2023/06/13 09:41:02;;;;;;;4.47;4.03;;;37.80;32.10;;;;;;4919990;29;20074;-78
2023/06/13 09:43:28;;;;;;;6.32;5.05;;;38.00;32.10;;;;;;4919870;29;20028;-78
2023/06/13 09:45:54;;;;;;;5.50;4.95;;;38.20;32.60;;;;;;4919291;29;20040;-78
2023/06/13 09:48:21;;;;;;;5.15;4.60;;;38.50;32.00;;;;;;4920808;29;20055;-78
2023/06/13 09:50:48;;;;;;;5.00;4.50;;;38.70;31.40;;;;;;4922917;29;20034;-77
2023/06/13 09:53:14;;;;;;;5.53;5.03;;;38.90;30.70;;;;;;4918561;29;20032;-76
2023/06/13 09:55:40;;;;;;;5.85;4.40;;;39.00;31.10;;;;;;4919662;29;20028;-77
2023/06/13 09:58:06;;;;;;;5.45;4.95;;;39.10;30.90;;;;;;4930601;29;20092;-77
2023/06/13 10:00:33;;;;;;;5.50;5.00;;;39.10;30.70;;;;;;4912676;29;20032;-77
2023/06/13 10:02:59;;;;;;;5.88;4.82;;;39.00;30.80;;;;;;4934858;29;20055;-77
2023/06/13 10:05:25;;;;;;;5.03;4.47;;;38.50;31.00;;;;;;4919740;29;20024;-77
2023/06/13 10:07:52;;;;;;;6.28;4.50;;;38.00;31.70;;;;;;4919234;29;20036;-76
2023/06/13 10:10:18;;;;;;;4.82;3.95;;;37.70;33.30;;;;;;4919385;29;20384;-77
2023/06/13 10:12:48;;;;;;;6.60;5.18;;;37.10;33.50;;;;;;4919800;29;20032;-77
2023/06/13 10:15:39;;;;;;;5.70;4.55;;;36.60;33.80;;;;;;4920447;29;20039;-77
2023/06/13 10:18:13;;;;;;;6.88;4.65;;;36.50;33.90;;;;;;4925983;29;20418;-76
2023/06/13 10:20:40;;;;;;;4.78;4.30;;;36.60;34.20;;;;;;4901019;29;20024;-77
2023/06/13 10:23:07;;;;;;;4.82;4.32;;;36.60;34.60;;;;;;4916823;29;20065;-77
2023/06/13 10:25:34;;;;;;;5.47;4.80;;;36.80;35.10;;;;;;4919764;29;20032;-77
2023/06/13 10:28:32;;;;;;;5.15;4.22;;;36.50;34.40;;;;;;4920194;29;20039;-77
2023/06/13 10:31:13;;;;;;;5.47;4.55;;;36.50;35.30;;;;;;4919292;29;20048;-77
2023/06/13 10:33:52;;;;;;;4.47;3.88;;;36.30;35.10;;;;;;4919622;29;20394;-77
2023/06/13 10:36:34;;;;;;;4.95;4.05;;;36.00;35.40;;;;;;4902786;29;20024;-77
2023/06/13 10:39:28;;;;;;;;;;;35.60;36.10;;;;;;4920469;29;20033;-76
2023/06/13 10:42:12;;;;;;;5.32;3.78;;;34.90;38.10;;;;;;4919998;29;19989;-76
2023/06/13 10:44:48;;;;;;;5.40;4.10;;;34.40;39.10;;;;;;4919500;29;20055;-76
2023/06/13 10:47:17;;;;;;;5.55;4.10;;;34.00;40.00;;;;;;4934852;29;20031;-76
2023/06/13 10:49:44;;;;;;;5.78;4.30;;;33.50;40.10;;;;;;4938457;29;20020;-76
2023/06/13 10:52:12;;;;;;;5.38;3.92;;;33.20;40.70;;;;;;4935400;29;20054;-76
2023/06/13 10:54:39;;;;;;;5.47;4.57;;;32.90;41.60;;;;;;4919875;29;20028;-76
2023/06/13 10:57:06;;;;;;;9.10;5.13;;;32.50;40.90;;;;;;4919680;29;20024;-76
2023/06/13 10:59:36;;;;;;;6.32;4.57;;;32.10;40.90;;;;;;4919429;29;20444;-76
2023/06/13 11:02:03;;;;;;;5.50;4.82;;;31.80;42.00;;;;;;4919440;29;20039;-76
2023/06/13 11:04:29;;;;;;;6.70;4.47;;;31.90;42.20;;;;;;4919530;29;20031;-75
2023/06/13 11:07:21;;;;;;;6.47;4.28;;;31.50;43.00;;;;;;4918936;29;20115;-76
2023/06/13 11:10:05;;;;;;;7.30;4.32;;;31.50;44.20;;;;;;4913726;29;20044;-76
2023/06/13 11:12:32;;;;;;;6.28;4.45;;;31.60;45.20;;;;;;4914986;29;20028;-79
2023/06/13 11:14:59;;;;;;;6.20;5.00;;;31.70;44.70;;;;;;4929451;29;20027;-76
2023/06/13 11:17:26;;;;;;;8.07;5.40;;;31.70;45.50;;;;;;4928918;29;20028;-77
2023/06/13 11:19:53;;;;;;;7.07;4.53;;;31.60;43.70;;;;;;4926860;29;20175;-77
2023/06/13 11:22:22;;;;;;;5.88;4.60;;;31.40;45.30;;;;;;4928866;29;20057;-77
2023/06/13 11:24:49;;;;;;;6.85;4.63;;;31.40;46.30;;;;;;4926632;29;20024;-77
2023/06/13 11:27:16;;;;;;;5.82;4.68;;;31.30;46.00;;;;;;4926380;29;20063;-77
2023/06/13 11:29:45;;;;;;;5.28;4.50;;;31.30;46.20;;;;;;4929126;29;20031;-77
2023/06/13 11:32:12;;;;;;;5.43;4.20;;;31.30;45.20;;;;;;4927479;29;20051;-76
2023/06/13 11:34:50;;;;;;;5.65;4.35;;;31.00;45.90;;;;;;4927533;29;20024;-77
2023/06/13 11:37:30;;;;;;;5.47;4.63;;;30.90;46.00;;;;;;4923459;29;20039;-76
2023/06/13 11:39:57;;;;;;;6.90;5.38;;;30.70;44.90;;;;;;4919715;29;20043;-77
2023/06/13 11:42:24;;;;;;;5.53;4.57;;;30.70;44.60;;;;;;4938637;29;20031;-77
2023/06/13 11:44:50;;;;;;;6.30;4.18;;;30.60;45.40;;;;;;4924449;29;20084;-77
2023/06/13 11:47:16;;;;;;;6.07;4.40;;;30.60;46.80;;;;;;4922419;29;20032;-77
2023/06/13 11:49:52;;;;;;;5.28;4.20;;;30.60;47.00;;;;;;4922959;29;20032;-77
2023/06/13 11:52:18;;;;;;;4.97;3.95;;;30.60;46.20;;;;;;4922495;29;20028;-77
2023/06/13 11:54:47;;;;;;;7.15;4.38;;;30.50;45.10;;;;;;4922966;29;20120;-76
2023/06/13 11:57:16;;;;;;;6.97;4.50;;;30.40;45.50;;;;;;4921763;29;20148;-78
2023/06/13 11:59:42;;;;;;;5.72;4.18;;;30.30;46.30;;;;;;4923107;29;20482;-77
2023/06/13 12:02:09;;;;;;;6.32;4.80;;;30.30;46.40;;;;;;4904924;29;20121;-77
2023/06/13 12:04:35;;;;;;;5.50;4.68;;;30.20;46.50;;;;;;4922611;29;20032;-77
2023/06/13 12:07:07;;;;;;;5.50;4.57;;;30.10;46.20;;;;;;4922430;29;20035;-77
2023/06/13 12:09:33;;;;;;;5.43;4.35;;;30.00;47.30;;;;;;4921811;29;20111;-76
2023/06/13 12:11:59;;;;;;;5.72;4.38;;;29.90;46.60;;;;;;4922258;29;20139;-77
2023/06/13 12:14:25;;;;;;;6.80;5.10;;;29.80;46.60;;;;;;4922624;29;20020;-77
2023/06/13 12:16:53;;;;;;;6.00;4.50;;;29.80;46.60;;;;;;4921514;29;20060;-77
2023/06/13 12:19:20;;;;;;;7.43;4.80;;;29.60;47.00;;;;;;4922459;29;20024;-77
2023/06/13 12:21:48;;;;;;;6.63;4.53;;;29.80;47.30;;;;;;4921899;29;20103;-77
2023/06/13 12:24:14;;;;;;;5.68;4.40;;;29.90;47.00;;;;;;4928348;29;20084;-77
2023/06/13 12:26:43;;;;;;;7.03;4.38;;;29.80;46.20;;;;;;4941265;29;20020;-78
2023/06/13 12:29:13;;;;;;;6.00;4.72;;;29.90;46.30;;;;;;4918350;29;20033;-76
2023/06/13 12:31:42;;;;;;;7.57;4.78;;;29.80;46.40;;;;;;4912580;29;20047;-77
2023/06/13 12:34:33;;;;;;;6.43;4.63;;;29.80;46.40;;;;;;4921465;29;20121;-77
2023/06/13 12:37:02;;;;;;;6.07;4.50;;;29.90;46.20;;;;;;4905288;29;20032;-77
2023/06/13 12:39:30;;;;;;;7.53;4.85;;;29.80;46.40;;;;;;4920812;29;20122;-77
2023/06/13 12:42:03;;;;;;;6.68;4.85;;;29.90;46.20;;;;;;4921680;29;20493;-77
2023/06/13 12:44:31;;;;;;;6.00;4.78;;;29.80;45.80;;;;;;4904763;29;20088;-77
2023/06/13 12:46:59;;;;;;;6.60;4.70;;;29.70;46.20;;;;;;4921314;29;20034;-77
2023/06/13 12:49:25;;;;;;;7.00;4.85;;;29.80;46.30;;;;;;4904832;29;20052;-76
2023/06/13 12:51:52;;;;;;;6.40;4.85;;;29.80;46.60;;;;;;4921064;29;20058;-80
2023/06/13 12:54:20;;;;;;;6.80;4.45;;;29.90;45.90;;;;;;4920714;29;20032;-79
2023/06/13 12:56:55;;;;;;;6.18;4.85;;;29.90;46.10;;;;;;4921685;29;20080;-77
2023/06/13 12:59:35;;;;;;;6.63;4.63;;;29.80;46.80;;;;;;4921119;29;20036;-77
2023/06/13 13:02:10;;;;;;;7.30;5.43;;;29.90;46.60;;;;;;4920675;29;20028;-77
2023/06/13 13:04:37;;;;;;;5.65;4.82;;;30.00;45.90;;;;;;4921030;29;20165;-77
2023/06/13 13:07:04;;;;;;;7.80;4.90;;;30.00;45.40;;;;;;4920440;29;20429;-77
2023/06/13 13:09:31;;;;;;;8.10;4.65;;;29.90;46.00;;;;;;4921407;29;20020;-77
2023/06/13 13:11:57;;;;;;;6.90;4.90;;;29.90;46.40;;;;;;4921021;29;20577;-77
2023/06/13 13:14:27;;;;;;;6.93;4.90;;;29.90;46.20;;;;;;4921419;29;20028;-77
2023/06/13 13:16:53;;;;;;;7.93;4.80;;;29.80;46.60;;;;;;4920099;29;20028;-77
2023/06/13 13:19:19;;;;;;;6.72;4.68;;;29.80;46.90;;;;;;4920261;29;20471;-78
2023/06/13 13:21:46;;;;;;;6.43;5.10;;;29.80;46.50;;;;;;4920539;29;20052;-77
2023/06/13 13:24:13;;;;;;;6.07;4.63;;;29.80;47.10;;;;;;4926874;29;20020;-77
2023/06/13 13:26:39;;;;;;;6.28;5.00;;;29.80;47.40;;;;;;4921049;29;20509;-77
2023/06/13 13:29:04;;;;;;;6.13;5.20;;;29.90;47.80;;;;;;4921144;29;20613;-77
2023/06/13 13:31:30;;;;;;;7.05;4.90;;;29.90;47.00;;;;;;4920920;29;20048;-76
2023/06/13 13:33:56;;;;;;;6.43;5.00;;;29.90;47.10;;;;;;4920333;29;20065;-77
2023/06/13 13:36:22;;;;;;;7.60;5.20;;;29.90;46.60;;;;;;4923033;29;20016;-76
2023/06/13 13:38:47;;;;;;;6.35;4.85;;;29.80;46.70;;;;;;4923206;29;20563;-77
2023/06/13 13:41:13;;;;;;;7.35;5.57;;;29.90;47.70;;;;;;4933103;29;20074;-77
2023/06/13 13:43:39;;;;;;;7.13;5.75;;;30.00;46.50;;;;;;4923782;29;20107;-77
2023/06/13 13:46:05;;;;;;;7.07;5.43;;;29.90;46.10;;;;;;4927332;29;20078;-77
2023/06/13 13:48:31;;;;;;;6.38;5.13;;;29.90;46.20;;;;;;4922940;29;20024;-78
2023/06/13 13:50:57;;;;;;;7.05;5.22;;;29.80;47.40;;;;;;4920114;29;20060;-77
2023/06/13 13:53:23;;;;;;;8.52;5.22;;;29.80;47.10;;;;;;4920558;29;20020;-77
2023/06/13 13:55:48;;;;;;;6.55;5.40;;;29.80;47.50;;;;;;4920952;29;20028;-77
2023/06/13 13:58:16;;;;;;;7.50;5.75;;;29.80;46.30;;;;;;4920156;29;20043;-77
2023/06/13 14:00:42;;;;;;;7.32;5.53;;;29.80;46.10;;;;;;4920363;29;20028;-77
2023/06/13 14:03:08;;;;;;;7.55;5.78;;;29.80;47.40;;;;;;4919911;29;20566;-77
2023/06/13 14:05:33;;;;;;;6.13;5.05;;;29.70;46.00;;;;;;4919591;29;20092;-78
2023/06/13 14:07:59;;;;;;;6.93;5.43;;;29.70;46.00;;;;;;4919933;29;20039;-77
2023/06/13 14:10:25;;;;;;;7.85;5.63;;;29.70;46.80;;;;;;4920076;29;20035;-77
2023/06/13 14:12:50;;;;;;;8.43;5.35;;;29.60;45.50;;;;;;4920047;29;20100;-78
2023/06/13 14:15:16;;;;;;;7.38;6.18;;;29.50;45.90;;;;;;4902560;29;20032;-77
2023/06/13 14:17:42;;;;;;;10.07;5.90;;;29.50;45.90;;;;;;4918470;29;20032;-78
2023/06/13 14:20:12;;;;;;;6.60;5.47;;;29.40;45.90;;;;;;4920013;29;20164;-77
2023/06/13 14:22:39;;;;;;;6.95;5.30;;;29.30;46.20;;;;;;4920338;29;20096;-77
2023/06/13 14:25:05;;;;;;;8.23;5.80;;;29.30;45.30;;;;;;4920245;29;20039;-77
2023/06/13 14:27:31;;;;;;;7.38;5.55;;;29.20;45.90;;;;;;4919529;29;20028;-77
2023/06/13 14:29:57;;;;;;;8.98;6.18;;;29.20;46.70;;;;;;4919639;29;20035;-77
2023/06/13 14:32:22;;;;;;;6.93;5.60;;;29.30;46.70;;;;;;4919883;29;20052;-77
2023/06/13 14:34:48;;;;;;;7.35;5.45;;;29.30;47.00;;;;;;4919901;29;20084;-77
2023/06/13 14:37:14;;;;;;;7.82;6.07;;;29.30;46.40;;;;;;4919580;29;20135;-79
2023/06/13 14:39:40;;;;;;;6.78;5.55;;;29.30;46.70;;;;;;4919047;29;20055;-77
2023/06/13 14:42:07;;;;;;;8.38;5.32;;;29.30;46.20;;;;;;4920058;29;20029;-77
2023/06/13 14:44:33;;;;;;;7.07;5.63;;;29.30;46.50;;;;;;4919939;29;20395;-77
2023/06/13 14:46:58;;;;;;;7.35;5.40;;;29.20;45.80;;;;;;4919140;29;20092;-77
2023/06/13 14:49:24;;;;;;;9.20;5.50;;;29.10;46.50;;;;;;4919672;29;20479;-77
2023/06/13 14:51:49;;;;;;;7.45;5.53;;;29.10;45.40;;;;;;4919240;29;20124;-77
2023/06/13 14:54:16;;;;;;;9.02;5.88;;;29.10;44.90;;;;;;4919855;29;20032;-77
2023/06/13 14:56:42;;;;;;;9.40;5.80;;;29.00;45.20;;;;;;4919880;29;20028;-77
2023/06/13 14:59:07;;;;;;;9.40;6.55;;;29.00;44.80;;;;;;4919068;29;20032;-77
2023/06/13 15:01:35;;;;;;;9.45;6.55;;;28.80;45.50;;;;;;4919266;29;20040;-77
2023/06/13 15:04:03;;;;;;;8.30;5.68;;;28.70;45.60;;;;;;4919612;29;20089;-77
2023/06/13 15:06:29;;;;;;;8.93;6.00;;;28.80;46.70;;;;;;4918873;29;20028;-77
2023/06/13 15:08:55;;;;;;;7.38;5.93;;;28.80;46.50;;;;;;4919460;29;20036;-77
2023/06/13 15:11:21;;;;;;;7.20;5.35;;;28.90;47.00;;;;;;4919353;29;20032;-78
2023/06/13 15:13:47;;;;;;;9.25;6.00;;;28.90;47.50;;;;;;4919267;29;20043;-78
2023/06/13 15:16:12;;;;;;;8.07;5.78;;;29.00;47.80;;;;;;4918927;29;20021;-76
2023/06/13 15:18:38;;;;;;;7.50;5.47;;;29.00;48.30;;;;;;4919493;29;20483;-78
2023/06/13 15:21:04;;;;;;;7.75;5.70;;;29.10;49.00;;;;;;4919225;29;20483;-78
2023/06/13 15:23:31;;;;;;;8.25;6.07;;;29.10;47.90;;;;;;4919304;29;20118;-80
2023/06/13 15:25:58;;;;;;;8.07;6.03;;;29.00;49.00;;;;;;4938142;29;20110;-80
2023/06/13 15:28:23;;;;;;;10.65;5.88;;;29.10;49.60;;;;;;4917535;29;20032;-85
2023/06/13 15:30:49;;;;;;;7.60;6.03;;;29.00;49.60;;;;;;4918195;29;20153;-78
2023/06/13 15:33:18;;;;;;;10.13;6.15;;;29.10;50.00;;;;;;4918644;29;20424;-78
2023/06/13 15:35:44;;;;;;;8.55;6.10;;;29.20;49.80;;;;;;4918559;29;20020;-78
2023/06/13 15:38:09;;;;;;;7.63;6.10;;;29.10;50.40;;;;;;4920824;29;20056;-78
2023/06/13 15:40:36;;;;;;;9.73;6.68;;;29.20;51.00;;;;;;4920947;29;20047;-78
2023/06/13 15:43:01;;;;;;;8.73;6.47;;;29.20;50.50;;;;;;4919449;29;20040;-78
2023/06/13 15:45:28;;;;;;;7.45;6.15;;;29.20;50.50;;;;;;4918541;29;20474;-78
2023/06/13 15:47:54;;;;;;;10.85;6.95;;;29.30;51.30;;;;;;4918297;29;20040;-78
2023/06/13 15:50:23;;;;;;;9.15;6.50;;;29.30;51.30;;;;;;4901978;29;20047;-86
2023/06/13 15:52:49;;;;;;;8.18;5.90;;;29.30;51.60;;;;;;4905086;29;20388;-77
2023/06/13 15:55:15;;;;;;;9.68;6.80;;;29.30;51.50;;;;;;4927678;29;20055;-79
2023/06/13 15:57:41;;;;;;;11.43;7.20;;;29.20;51.10;;;;;;4927793;29;20479;-79
2023/06/13 16:00:07;;;;;;;10.45;7.03;;;29.30;51.60;;;;;;4927291;29;20056;-78
2023/06/13 16:02:33;;;;;;;10.02;6.65;;;29.10;51.50;;;;;;4918346;29;20068;-78
2023/06/13 16:05:00;;;;;;;10.52;7.10;;;29.00;52.00;;;;;;4918392;29;20119;-78
2023/06/13 16:07:26;;;;;;;9.20;6.57;;;29.00;52.30;;;;;;4901244;29;20059;-79
2023/06/13 16:09:52;;;;;;;10.90;7.32;;;29.00;51.90;;;;;;4918591;29;20028;-78
2023/06/13 16:12:18;;;;;;;9.25;6.30;;;29.00;52.20;;;;;;4916055;29;20036;-81
2023/06/13 16:14:44;;;;;;;9.73;6.97;;;28.80;52.50;;;;;;4918259;29;20025;-78
2023/06/13 16:17:09;;;;;;;11.40;7.97;;;28.80;52.70;;;;;;4916458;29;20101;-78
2023/06/13 16:19:35;;;;;;;22.48;11.00;;;28.80;52.90;;;;;;4916527;29;20052;-78
2023/06/13 16:22:01;;;;;;;14.38;8.45;;;28.80;53.60;;;;;;4911982;29;20028;-78
2023/06/13 16:24:27;;;;;;;9.68;6.80;;;28.80;52.90;;;;;;4920999;29;20023;-83
2023/06/13 16:26:53;;;;;;;15.18;9.20;;;28.80;52.60;;;;;;4917468;29;20036;-80
2023/06/13 16:29:18;;;;;;;10.15;6.95;;;28.80;52.90;;;;;;4921127;29;20380;-79
2023/06/13 16:31:44;;;;;;;9.25;6.63;;;28.80;52.50;;;;;;4921155;29;20056;-80
2023/06/13 16:34:10;;;;;;;8.70;6.65;;;28.80;52.10;;;;;;4920997;29;20024;-75
2023/06/13 16:36:39;;;;;;;8.85;6.70;;;28.70;53.10;;;;;;4921913;29;20039;-76
2023/06/13 16:39:05;;;;;;;9.73;6.65;;;28.70;53.20;;;;;;4921511;29;20589;-76
2023/06/13 16:41:31;;;;;;;8.45;6.38;;;28.70;53.20;;;;;;4921897;29;20064;-76
2023/06/13 16:43:57;;;;;;;8.80;7.03;;;28.80;53.10;;;;;;4921841;29;20050;-76
2023/06/13 16:46:23;;;;;;;9.18;6.55;;;28.80;53.00;;;;;;4921200;29;20031;-76
2023/06/13 16:48:48;;;;;;;9.43;6.70;;;28.80;52.60;;;;;;4920187;29;20056;-77
2023/06/13 16:51:14;;;;;;;10.23;7.00;;;28.80;52.40;;;;;;4921610;29;20036;-76
2023/06/13 16:53:40;;;;;;;9.23;6.80;;;28.80;52.60;;;;;;4921897;29;20053;-77
2023/06/13 16:56:05;;;;;;;9.93;6.53;;;28.70;52.90;;;;;;4921474;29;20036;-77
2023/06/13 16:58:31;;;;;;;8.52;6.45;;;28.70;53.30;;;;;;4921831;29;20024;-77
2023/06/13 17:00:57;;;;;;;9.27;6.78;;;28.70;53.00;;;;;;4921042;29;20039;-77
2023/06/13 17:03:23;;;;;;;10.73;6.95;;;28.50;53.30;;;;;;4921243;29;20537;-77
2023/06/13 17:05:49;;;;;;;10.07;7.32;;;28.60;53.80;;;;;;4921446;29;20039;-77
2023/06/13 17:08:15;;;;;;;12.90;7.78;;;28.40;53.60;;;;;;4921161;29;20372;-77
2023/06/13 17:10:41;;;;;;;16.42;8.00;;;28.30;53.60;;;;;;4921182;29;20032;-77
2023/06/13 17:13:08;;;;;;;11.45;7.88;;;28.30;54.10;;;;;;4920286;29;20024;-77
2023/06/13 17:15:41;;;;;;;8.85;6.60;;;28.20;54.10;;;;;;4903794;29;20036;-78